首页
METAR-TAF:

METAR-TAF

机场 :

聖多明哥, 多米尼加共和国

伊莎貝拉國際機場

纬度: 18-34-32N, 经度: 069-58-53W, 海拔: 15米

当前天气观测

该预报发布于31分钟前的14:00 UTC
风速6节,风向东转东北
温度 26°C
湿度 79%
气压 1018 hPa
能见度10公里或以上
散云层高于1800英尺
散云层高于30000英尺

METAR: MDJB 221400Z 07006KT 9999 SCT018 SCT300 26/22 Q1018

时间: 10:31 (14:31 UTC)

预报

该预报发布于4小时和31分钟前的10:00 UTC
预报有效从22日的 12点(UTC)到 23日的 12点(UTC)
风速4节,风向东北
能见度10公里或以上
少量云层高于1600英尺
散云层高于30000英尺
成为
从 22日的 16点(UTC)到 22日的 18点(UTC)
风速10节,风向
几率 30% :
短暂存在
从 22日的 17点(UTC)到 22日的 23点(UTC)
能見度: 6000
少量云层高于1400英尺, 积雨云.
多云层高于1600英尺
散云层高于7000英尺
雷暴, 小雨

TAF: MDJB 221000Z 2212/2312 04004KT 9999 FEW016 SCT300 BECMG 2216/2218 18010KT PROB30 TEMPO 2217/2223 6000 -TSRA FEW014CB BKN016 SCT070

超过4000个机场的气象观测和天气预报(METAR&TAF报告)。

可查询的气象台以黄色和红色小点在地图上表示。

将鼠标移到小点上方,可查看气象台名称。

然后点击查看天气观测和预报。

如需切换地图:点击带黑十字的绿色按钮放大地图;点击带横线的绿色按钮缩小地图;或者点击绿色箭头查看邻近地区的地图。


METAR-TAF: